Time;durP1;ratioP1;P1;durP2;ratioP2;P2;SDS_P1;SDS_P2;PMS_P1;PMS_P2;Temp;Humidity;BMP_temperature;BMP_pressure;BME280_temperature;BME280_humidity;BME280_pressure;Samples;Min_cycle;Max_cycle;Signal;HPM_P1;HPM_P2
2021/10/26 00:00:08;;;;;;;15.75;8.20;;;;;;;4.81;59.77;96543.50;5026308;28;20448;-74
2021/10/26 00:02:35;;;;;;;12.55;7.95;;;;;;;4.78;60.32;96539.25;5009224;28;20026;-75
2021/10/26 00:05:00;;;;;;;14.65;8.25;;;;;;;4.65;61.25;96538.44;5026056;28;20026;-76
2021/10/26 00:07:26;;;;;;;15.07;8.57;;;;;;;4.60;60.79;96536.13;5024892;28;20043;-75
2021/10/26 00:09:51;;;;;;;14.73;8.20;;;;;;;4.68;60.59;96532.91;5029226;28;20049;-75
2021/10/26 00:12:17;;;;;;;12.27;7.57;;;;;;;4.80;59.79;96532.00;5014830;28;20167;-75
2021/10/26 00:14:42;;;;;;;13.15;8.30;;;;;;;4.86;59.43;96529.84;5032456;28;20514;-76
2021/10/26 00:17:08;;;;;;;14.75;8.02;;;;;;;4.80;59.70;96524.03;5031529;28;20028;-74
2021/10/26 00:19:33;;;;;;;13.02;7.63;;;;;;;4.82;60.02;96524.75;5014778;28;20029;-75
2021/10/26 00:21:59;;;;;;;13.07;7.97;;;;;;;4.81;59.77;96527.53;5032550;28;20159;-76
2021/10/26 00:24:24;;;;;;;12.90;8.00;;;;;;;4.75;60.16;96523.53;5031257;28;20041;-74
2021/10/26 00:26:50;;;;;;;11.68;7.78;;;;;;;4.64;60.50;96523.47;5030933;28;20028;-74
2021/10/26 00:29:16;;;;;;;10.57;7.70;;;;;;;4.71;60.88;96524.72;5032631;28;20095;-75
2021/10/26 00:31:41;;;;;;;12.20;8.80;;;;;;;4.73;60.62;96524.59;5032221;28;20033;-74
2021/10/26 00:34:06;;;;;;;12.88;7.35;;;;;;;4.74;60.49;96521.81;5031530;28;20039;-73
2021/10/26 00:36:32;;;;;;;12.18;7.53;;;;;;;4.65;60.72;96526.03;5031102;28;20477;-75
2021/10/26 00:38:58;;;;;;;13.55;8.15;;;;;;;4.58;61.51;96520.31;5014751;28;20437;-74
2021/10/26 00:41:23;;;;;;;14.73;8.57;;;;;;;4.55;61.42;96509.03;5032447;28;20025;-77
2021/10/26 00:43:49;;;;;;;17.52;9.43;;;;;;;4.54;61.81;96516.19;4998229;28;20033;-75
2021/10/26 00:46:31;;;;;;;16.23;8.55;;;;;;;4.53;61.52;96514.47;5031329;28;20021;-74
2021/10/26 00:48:57;;;;;;;11.93;8.35;;;;;;;4.52;61.91;96514.59;5031285;28;20444;-74
2021/10/26 00:51:22;;;;;;;11.85;8.35;;;;;;;4.49;61.81;96513.00;5031060;28;20029;-77
2021/10/26 00:53:48;;;;;;;14.27;8.57;;;;;;;4.54;61.84;96504.69;5031041;28;20087;-76
2021/10/26 00:56:14;;;;;;;13.55;7.80;;;;;;;4.58;61.27;96507.03;5014510;28;20071;-75
2021/10/26 00:58:39;;;;;;;13.30;8.25;;;;;;;4.61;61.90;96499.78;5014658;28;20040;-73
2021/10/26 01:01:05;;;;;;;14.05;8.20;;;;;;;4.51;62.37;96495.16;5032086;28;20381;-74
2021/10/26 01:03:30;;;;;;;12.55;7.80;;;;;;;4.42;62.75;96487.84;5031084;28;20496;-74
2021/10/26 01:05:56;;;;;;;16.25;8.43;;;;;;;4.40;62.76;96490.63;5030784;28;20504;-74
2021/10/26 01:08:21;;;;;;;17.20;8.57;;;;;;;4.43;63.01;96487.72;5014693;28;20029;-75
2021/10/26 01:10:48;;;;;;;16.40;9.00;;;;;;;4.42;63.46;96488.69;5013564;28;20042;-75
2021/10/26 01:13:13;;;;;;;13.75;8.68;;;;;;;4.45;63.04;96487.63;5031032;28;20526;-75
2021/10/26 01:15:39;;;;;;;13.07;7.90;;;;;;;4.40;63.29;96490.63;5014172;28;20044;-75
2021/10/26 01:18:04;;;;;;;14.15;8.13;;;;;;;4.35;63.34;96479.50;5031994;28;20547;-73
2021/10/26 01:20:30;;;;;;;12.30;8.60;;;;;;;4.43;63.27;96486.91;5030458;28;20396;-75
2021/10/26 01:22:55;;;;;;;11.73;8.32;;;;;;;4.40;63.64;96481.81;5027573;28;20021;-72
2021/10/26 01:25:20;;;;;;;11.88;7.50;;;;;;;4.42;63.03;96483.38;5027841;28;20025;-76
2021/10/26 01:27:48;;;;;;;13.00;8.60;;;;;;;4.44;63.26;96483.28;5010410;28;20030;-77
2021/10/26 01:30:14;;;;;;;12.15;7.70;;;;;;;4.39;63.70;96480.09;5027813;28;20022;-74
2021/10/26 01:32:39;;;;;;;16.23;8.60;;;;;;;4.26;62.68;96480.16;5027239;28;20109;-76
2021/10/26 01:35:05;;;;;;;12.35;8.88;;;;;;;4.23;63.39;96483.88;4994634;28;20029;-73
2021/10/26 01:37:31;;;;;;;12.98;7.97;;;;;;;4.21;64.04;96483.13;4994885;28;20021;-74
2021/10/26 01:39:58;;;;;;;15.05;7.85;;;;;;;4.27;64.00;96477.38;5028537;28;20030;-75
2021/10/26 01:42:24;;;;;;;16.80;8.27;;;;;;;4.37;62.96;96482.03;5011306;28;20033;-75
2021/10/26 01:44:50;;;;;;;14.45;8.48;;;;;;;4.33;64.28;96478.75;5026945;28;20044;-74
2021/10/26 01:47:15;;;;;;;13.73;8.15;;;;;;;4.38;64.05;96473.09;5028955;28;20476;-74
2021/10/26 01:49:41;;;;;;;15.25;8.60;;;;;;;4.41;63.53;96475.53;4994158;28;20033;-74
2021/10/26 01:52:06;;;;;;;13.63;8.75;;;;;;;4.48;63.50;96467.97;5028632;28;20108;-73
2021/10/26 01:54:37;;;;;;;14.98;9.45;;;;;;;4.44;63.12;96465.53;5027274;28;20130;-75
2021/10/26 01:57:06;;;;;;;15.23;10.10;;;;;;;4.35;64.43;96460.91;5027029;28;20032;-75
2021/10/26 01:59:32;;;;;;;15.23;8.80;;;;;;;4.33;64.21;96461.03;5027304;28;20311;-78
2021/10/26 02:01:58;;;;;;;15.45;8.35;;;;;;;4.34;63.72;96461.84;5010137;28;20029;-74
2021/10/26 02:04:23;;;;;;;14.55;8.27;;;;;;;4.38;64.17;96455.38;5010640;28;20030;-78
2021/10/26 02:06:49;;;;;;;14.98;8.68;;;;;;;4.38;62.89;96449.19;5026353;28;20021;-75
2021/10/26 02:09:14;;;;;;;13.38;8.40;;;;;;;4.32;63.88;96450.50;5026911;28;20045;-74
2021/10/26 02:11:40;;;;;;;11.90;8.25;;;;;;;4.26;64.23;96451.78;5027991;28;20143;-77
2021/10/26 02:14:06;;;;;;;13.55;7.63;;;;;;;4.12;64.20;96446.63;5026700;28;20032;-74
2021/10/26 02:16:31;;;;;;;14.82;9.90;;;;;;;4.04;64.31;96456.03;5028248;28;20072;-76
2021/10/26 02:18:57;;;;;;;16.60;10.60;;;;;;;4.06;61.30;96456.72;5027476;28;20351;-76
2021/10/26 02:21:22;;;;;;;18.05;10.82;;;;;;;3.92;61.58;96451.56;5028279;28;20025;-78
2021/10/26 02:23:48;;;;;;;19.80;11.10;;;;;;;3.77;61.96;96449.06;5009497;28;20033;-79
2021/10/26 02:26:14;;;;;;;19.63;11.07;;;;;;;3.59;62.13;96446.75;5026676;28;20022;-74
2021/10/26 02:28:40;;;;;;;20.27;11.30;;;;;;;3.49;62.64;96448.38;5027656;28;20037;-76
2021/10/26 02:31:05;;;;;;;19.83;11.23;;;;;;;3.42;62.19;96447.94;5027867;28;20838;-75
2021/10/26 02:33:31;;;;;;;17.92;10.48;;;;;;;3.32;63.05;96441.59;5027342;28;20029;-74
2021/10/26 02:35:56;;;;;;;16.55;9.38;;;;;;;3.22;62.86;96452.00;5027319;28;20079;-75
2021/10/26 02:38:22;;;;;;;17.13;10.35;;;;;;;3.07;63.04;96443.28;5027914;28;20033;-74
2021/10/26 02:40:47;;;;;;;14.85;9.50;;;;;;;3.04;62.10;96446.16;5026058;28;20423;-75
2021/10/26 02:43:12;;;;;;;16.58;9.60;;;;;;;2.86;62.51;96450.88;5026037;28;20032;-75
2021/10/26 02:45:38;;;;;;;14.82;8.82;;;;;;;2.90;62.57;96444.44;5025851;28;20040;-75
2021/10/26 02:48:04;;;;;;;15.15;9.18;;;;;;;2.95;62.09;96447.63;5026079;28;20029;-75
2021/10/26 02:50:29;;;;;;;18.73;9.40;;;;;;;2.88;62.19;96441.03;5025978;28;20061;-77
2021/10/26 02:52:55;;;;;;;14.52;9.10;;;;;;;2.75;62.46;96436.59;5009439;28;20025;-75
2021/10/26 02:55:20;;;;;;;18.42;9.68;;;;;;;2.64;62.85;96444.41;5027539;28;20025;-74
2021/10/26 02:57:46;;;;;;;17.80;9.95;;;;;;;2.50;63.73;96451.44;5009189;28;20025;-75
2021/10/26 03:00:11;;;;;;;16.73;9.43;;;;;;;2.43;63.70;96448.38;5027330;28;20025;-74
2021/10/26 03:02:38;;;;;;;16.00;9.75;;;;;;;2.52;63.21;96441.63;5026893;28;20497;-74
2021/10/26 03:05:04;;;;;;;14.82;9.30;;;;;;;2.56;62.59;96443.09;5027153;28;20026;-74
2021/10/26 03:07:30;;;;;;;18.77;9.88;;;;;;;2.57;61.97;96443.94;5009080;28;20049;-75
2021/10/26 03:09:55;;;;;;;15.05;9.70;;;;;;;2.49;62.77;96438.31;5025645;28;20539;-75
2021/10/26 03:12:20;;;;;;;14.32;9.35;;;;;;;2.40;64.15;96437.13;5025773;28;20034;-76
2021/10/26 03:14:46;;;;;;;17.42;9.95;;;;;;;2.31;64.26;96439.44;5025590;28;20480;-74
2021/10/26 03:17:11;;;;;;;15.35;9.45;;;;;;;2.28;64.21;96439.63;5025730;28;20403;-73
2021/10/26 03:19:37;;;;;;;17.98;9.82;;;;;;;2.20;63.09;96436.63;5025420;28;20025;-72
2021/10/26 03:22:02;;;;;;;16.90;10.38;;;;;;;2.13;63.70;96430.88;5025400;28;20431;-74
2021/10/26 03:24:28;;;;;;;20.23;10.98;;;;;;;2.12;64.43;96431.84;5026448;28;20461;-74
2021/10/26 03:26:54;;;;;;;16.65;9.88;;;;;;;2.23;63.84;96433.78;5025706;28;20029;-74
2021/10/26 03:29:20;;;;;;;16.38;10.40;;;;;;;2.17;65.07;96434.19;5008862;28;20073;-73
2021/10/26 03:31:47;;;;;;;15.02;9.85;;;;;;;2.20;65.16;96426.03;5026797;28;20573;-75
2021/10/26 03:34:13;;;;;;;17.30;10.77;;;;;;;2.15;64.21;96428.13;5009301;28;20590;-73
2021/10/26 03:36:38;;;;;;;17.85;10.55;;;;;;;2.07;63.84;96426.84;5026349;28;20045;-75
2021/10/26 03:39:04;;;;;;;25.88;10.60;;;;;;;2.05;64.68;96433.16;5026817;28;20492;-77
2021/10/26 03:41:30;;;;;;;19.65;11.98;;;;;;;2.02;64.96;96434.22;5026047;28;20404;-74
2021/10/26 03:43:55;;;;;;;20.88;12.73;;;;;;;1.94;63.95;96428.56;5026228;28;20026;-75
2021/10/26 03:46:21;;;;;;;18.95;10.77;;;;;;;1.95;63.40;96432.94;5025908;28;20025;-75
2021/10/26 03:48:46;;;;;;;19.38;9.77;;;;;;;1.81;62.35;96426.72;5025161;28;20037;-74
2021/10/26 03:51:12;;;;;;;23.27;12.02;;;;;;;1.70;62.91;96423.91;5024943;28;20488;-76
2021/10/26 03:53:37;;;;;;;20.52;10.90;;;;;;;1.65;63.55;96420.69;5008750;28;20061;-74
2021/10/26 03:56:04;;;;;;;21.42;11.45;;;;;;;1.74;64.19;96422.78;5026528;28;20013;-73
2021/10/26 03:58:29;;;;;;;22.35;11.80;;;;;;;1.82;64.86;96425.75;5007766;28;20615;-74
2021/10/26 04:00:55;;;;;;;23.77;12.27;;;;;;;1.91;64.58;96420.84;4992167;28;20029;-74
2021/10/26 04:03:20;;;;;;;21.60;12.00;;;;;;;1.88;65.07;96421.91;5024306;28;20021;-74
2021/10/26 04:08:35;;;;;;;21.35;10.85;;;;;;;2.00;64.41;96425.53;5024812;28;20480;-76
2021/10/26 04:11:06;;;;;;;20.45;10.57;;;;;;;1.91;64.39;96420.84;5024868;28;20056;-75
2021/10/26 04:13:31;;;;;;;17.65;10.73;;;;;;;1.90;65.09;96425.31;5025032;28;20029;-74
2021/10/26 04:15:57;;;;;;;17.38;11.38;;;;;;;1.79;65.10;96420.69;5008113;28;20519;-76
2021/10/26 04:18:25;;;;;;;16.45;9.70;;;;;;;1.77;64.33;96417.31;5024845;28;20026;-74
2021/10/26 04:20:51;;;;;;;15.90;9.90;;;;;;;1.83;64.67;96421.34;5008321;28;20462;-77
2021/10/26 04:23:16;;;;;;;19.80;10.52;;;;;;;1.80;65.25;96416.25;5008146;28;20542;-76
2021/10/26 04:25:42;;;;;;;24.10;11.20;;;;;;;1.73;65.72;96419.28;5024714;28;20030;-76
2021/10/26 04:28:07;;;;;;;21.00;10.70;;;;;;;1.83;64.24;96414.25;5026048;28;20374;-75
2021/10/26 04:30:37;;;;;;;20.60;10.77;;;;;;;1.89;65.16;96413.00;5024707;28;20036;-74
2021/10/26 04:33:02;;;;;;;23.85;11.20;;;;;;;1.84;65.04;96405.38;4992652;28;20033;-75
2021/10/26 04:35:28;;;;;;;16.40;10.85;;;;;;;1.85;65.46;96415.00;5025875;28;20104;-73
2021/10/26 04:37:53;;;;;;;21.05;10.75;;;;;;;1.99;64.28;96415.91;5024045;28;20037;-75
2021/10/26 04:40:19;;;;;;;23.67;10.88;;;;;;;1.93;65.42;96418.94;5008281;28;20040;-77
2021/10/26 04:42:44;;;;;;;18.80;11.02;;;;;;;1.88;64.99;96423.69;5024005;28;20037;-74
2021/10/26 04:45:09;;;;;;;20.15;10.50;;;;;;;1.80;64.65;96419.75;5024604;28;20021;-74
2021/10/26 04:47:35;;;;;;;21.55;11.75;;;;;;;1.79;64.36;96419.84;5024529;28;20024;-74
2021/10/26 04:50:01;;;;;;;17.15;10.85;;;;;;;1.89;64.53;96413.00;5025626;28;20488;-74
2021/10/26 04:52:26;;;;;;;19.83;12.10;;;;;;;1.82;64.76;96420.47;5008172;28;20029;-72
2021/10/26 04:54:52;;;;;;;20.95;12.85;;;;;;;1.74;66.00;96420.16;5025452;28;20482;-74
2021/10/26 04:57:17;;;;;;;24.70;12.48;;;;;;;1.77;65.94;96427.88;5029327;28;20025;-74
2021/10/26 04:59:43;;;;;;;25.45;13.80;;;;;;;1.77;65.99;96425.25;5028764;28;20415;-75
2021/10/26 05:02:08;;;;;;;29.35;15.02;;;;;;;1.75;66.13;96426.25;5029679;28;20018;-73
2021/10/26 05:04:33;;;;;;;29.13;14.60;;;;;;;1.79;66.55;96425.97;5029074;28;20095;-73
2021/10/26 05:06:59;;;;;;;30.58;16.90;;;;;;;1.80;66.98;96427.69;5029325;28;20514;-73
2021/10/26 05:09:25;;;;;;;28.98;15.00;;;;;;;1.77;65.82;96425.25;5028121;28;20429;-73
2021/10/26 05:11:50;;;;;;;26.63;14.80;;;;;;;1.76;65.27;96425.34;5028815;28;20022;-72
2021/10/26 05:14:16;;;;;;;28.73;14.82;;;;;;;1.77;64.80;96425.25;5028101;28;20057;-73
2021/10/26 05:16:44;;;;;;;43.20;17.10;;;;;;;1.85;65.90;96432.69;5010981;28;20435;-73
2021/10/26 05:19:10;;;;;;;40.20;16.30;;;;;;;1.85;65.33;96430.03;5029188;28;20037;-74
2021/10/26 05:21:35;;;;;;;51.88;20.23;;;;;;;1.87;64.77;96435.22;5028598;28;20039;-74
2021/10/26 05:24:01;;;;;;;80.60;25.35;;;;;;;1.91;64.67;96431.44;5029089;28;20451;-73
2021/10/26 05:26:26;;;;;;;52.65;20.42;;;;;;;2.00;64.39;96430.00;5027788;28;20025;-73
2021/10/26 05:28:52;;;;;;;50.92;19.35;;;;;;;1.97;64.12;96436.31;5010835;28;20064;-73
2021/10/26 05:31:17;;;;;;;53.42;19.55;;;;;;;2.00;64.57;96427.34;5028112;28;20139;-74
2021/10/26 05:33:43;;;;;;;51.42;19.67;;;;;;;2.06;64.69;96430.44;5028411;28;20439;-74
2021/10/26 05:36:08;;;;;;;45.90;19.38;;;;;;;2.12;64.56;96433.63;5011321;28;20131;-72
2021/10/26 05:38:34;;;;;;;45.67;19.02;;;;;;;2.19;64.55;96434.94;5010555;28;20034;-73
2021/10/26 05:40:59;;;;;;;41.47;19.95;;;;;;;2.30;64.01;96442.19;5010982;28;20037;-73
2021/10/26 05:43:25;;;;;;;47.28;20.20;;;;;;;2.47;63.69;96441.06;5027131;28;20403;-74
2021/10/26 05:45:52;;;;;;;36.22;17.77;;;;;;;2.75;62.65;96439.22;5028586;28;20033;-74
2021/10/26 05:48:17;;;;;;;67.75;24.27;;;;;;;2.80;62.40;96442.44;5027634;28;20105;-75
2021/10/26 05:50:43;;;;;;;76.43;25.27;;;;;;;2.99;63.31;96441.16;5026676;28;20091;-73
2021/10/26 05:53:09;;;;;;;59.38;24.42;;;;;;;3.09;62.86;96441.38;5028816;28;20044;-73
2021/10/26 05:55:35;;;;;;;51.47;23.70;;;;;;;3.21;62.26;96456.44;5026701;28;20064;-73
2021/10/26 05:58:00;;;;;;;44.80;20.52;;;;;;;3.49;61.40;96447.50;5028691;28;20032;-75
2021/10/26 06:00:26;;;;;;;34.75;18.88;;;;;;;3.74;60.77;96448.44;5028002;28;20036;-74
2021/10/26 06:02:52;;;;;;;32.28;16.98;;;;;;;3.73;61.12;96446.72;5028099;28;20408;-73
2021/10/26 06:05:18;;;;;;;32.92;17.70;;;;;;;3.99;60.56;96454.63;5028332;28;20061;-74
2021/10/26 06:07:43;;;;;;;34.55;17.63;;;;;;;4.10;60.57;96449.41;5027794;28;20655;-74
2021/10/26 06:10:10;;;;;;;31.42;16.38;;;;;;;4.30;60.03;96455.94;5028049;28;20045;-75
2021/10/26 06:12:37;;;;;;;25.58;15.77;;;;;;;4.40;59.54;96449.94;5026628;28;20040;-74
2021/10/26 06:15:03;;;;;;;31.15;15.38;;;;;;;4.52;59.19;96458.78;5027906;28;20096;-73
2021/10/26 06:17:29;;;;;;;22.38;14.25;;;;;;;4.68;58.55;96458.50;5027571;28;20120;-74
2021/10/26 06:19:55;;;;;;;23.95;14.40;;;;;;;4.73;58.92;96458.16;5010091;28;20472;-75
2021/10/26 06:22:21;;;;;;;26.52;15.13;;;;;;;4.77;59.75;96462.28;5027934;28;20558;-75
2021/10/26 06:24:47;;;;;;;27.42;15.20;;;;;;;4.92;58.96;96455.81;5028267;28;20036;-74
2021/10/26 06:27:13;;;;;;;27.38;15.35;;;;;;;5.09;58.96;96451.03;5028030;28;20075;-74
2021/10/26 06:29:38;;;;;;;28.98;15.65;;;;;;;5.19;58.80;96453.84;5027436;28;20017;-73
2021/10/26 06:32:04;;;;;;;22.77;14.27;;;;;;;5.41;58.29;96457.47;5027812;28;20080;-74
2021/10/26 06:34:29;;;;;;;22.50;13.57;;;;;;;5.57;58.29;96454.47;5027421;28;20079;-74
2021/10/26 06:36:55;;;;;;;25.52;14.82;;;;;;;5.58;58.38;96456.16;5026166;28;20048;-74
2021/10/26 06:39:21;;;;;;;20.92;13.15;;;;;;;5.72;58.18;96457.75;5026150;28;20079;-74
2021/10/26 06:41:48;;;;;;;22.40;13.02;;;;;;;5.82;58.43;96453.38;5026315;28;20459;-73
2021/10/26 06:44:13;;;;;;;23.80;14.25;;;;;;;6.06;57.91;96465.72;5027299;28;20033;-74
2021/10/26 06:46:39;;;;;;;20.10;13.70;;;;;;;6.14;58.14;96465.09;5026083;28;20030;-74
2021/10/26 06:49:04;;;;;;;21.30;12.25;;;;;;;6.27;57.75;96464.94;5027605;28;20037;-74
2021/10/26 06:51:31;;;;;;;18.90;12.93;;;;;;;6.36;57.93;96459.84;5025869;28;20033;-75
2021/10/26 06:53:57;;;;;;;21.55;13.57;;;;;;;6.62;56.82;96457.72;5026067;28;20025;-75
2021/10/26 06:56:23;;;;;;;23.95;14.82;;;;;;;6.75;56.79;96459.38;5026795;28;20040;-75
2021/10/26 06:58:48;;;;;;;23.90;14.68;;;;;;;6.78;56.42;96449.31;5026057;28;20025;-74
2021/10/26 07:01:14;;;;;;;21.63;13.70;;;;;;;6.93;56.03;96455.16;5009031;28;20595;-74
2021/10/26 07:03:40;;;;;;;24.85;15.10;;;;;;;6.92;56.54;96448.13;5025754;28;20037;-75
2021/10/26 07:06:06;;;;;;;24.73;14.65;;;;;;;7.04;56.34;96448.06;5025707;28;20075;-74
2021/10/26 07:08:32;;;;;;;24.17;15.05;;;;;;;7.07;56.33;96452.28;5009221;28;20025;-74
2021/10/26 07:10:58;;;;;;;22.73;14.35;;;;;;;7.13;56.52;96449.09;5025851;28;20504;-74
2021/10/26 07:13:24;;;;;;;24.10;15.20;;;;;;;7.17;56.66;96448.72;5026360;28;20105;-77
2021/10/26 07:15:49;;;;;;;25.45;15.55;;;;;;;7.38;55.74;96450.53;5025605;28;20472;-74
2021/10/26 07:18:15;;;;;;;26.88;15.95;;;;;;;7.55;55.95;96450.91;5024315;28;20030;-74
2021/10/26 07:20:40;;;;;;;22.38;15.32;;;;;;;7.35;56.19;96450.78;5009179;28;20112;-74
2021/10/26 07:23:06;;;;;;;22.35;15.23;;;;;;;7.23;56.77;96446.50;5026618;28;20037;-74
2021/10/26 07:25:31;;;;;;;25.63;15.43;;;;;;;7.28;56.93;96449.63;5025351;28;20029;-74
2021/10/26 07:27:58;;;;;;;23.65;15.93;;;;;;;7.34;56.38;96442.91;5009407;28;20013;-75
2021/10/26 07:30:24;;;;;;;28.73;15.63;;;;;;;7.56;56.15;96446.41;5026101;28;20159;-74
2021/10/26 07:32:49;;;;;;;25.83;16.00;;;;;;;7.75;55.50;96445.66;5025593;28;20029;-74
2021/10/26 07:35:15;;;;;;;21.15;15.48;;;;;;;7.89;55.18;96436.41;5026378;28;20032;-74
2021/10/26 07:37:44;;;;;;;28.27;16.38;;;;;;;8.04;54.83;96432.38;5026985;28;20502;-74
2021/10/26 07:40:10;;;;;;;26.80;16.50;;;;;;;8.04;54.85;96439.56;5025050;28;20500;-75
2021/10/26 07:42:35;;;;;;;28.38;15.77;;;;;;;7.94;55.66;96433.34;5026344;28;20480;-74
2021/10/26 07:45:00;;;;;;;26.95;15.93;;;;;;;7.94;55.90;96430.66;5026599;28;20030;-74
2021/10/26 07:47:26;;;;;;;25.08;14.45;;;;;;;7.92;56.00;96428.13;5024538;28;20029;-74
2021/10/26 07:49:52;;;;;;;21.23;13.55;;;;;;;7.77;56.60;96415.16;5008934;28;20022;-74
2021/10/26 07:52:19;;;;;;;23.85;13.63;;;;;;;7.84;56.85;96415.47;5025727;28;20420;-74
2021/10/26 07:54:50;;;;;;;21.98;12.40;;;;;;;8.02;56.71;96415.66;5025176;28;20025;-74
2021/10/26 07:57:16;;;;;;;15.77;8.82;;;;;;;8.17;55.95;96415.28;5008862;28;20053;-75
2021/10/26 07:59:43;;;;;;;16.00;9.25;;;;;;;8.35;55.00;96414.59;5024883;28;20084;-74
2021/10/26 08:02:13;;;;;;;11.23;8.10;;;;;;;8.43;54.82;96412.06;5026400;28;20527;-74
2021/10/26 08:04:39;;;;;;;12.93;9.00;;;;;;;8.49;55.03;96411.53;5024546;28;20142;-74
2021/10/26 08:07:08;;;;;;;14.85;8.73;;;;;;;8.65;54.57;96397.63;5008887;28;20057;-74
2021/10/26 08:09:34;;;;;;;12.82;8.65;;;;;;;8.70;54.38;96407.91;5025460;28;20038;-76
2021/10/26 08:11:59;;;;;;;14.27;8.77;;;;;;;8.69;54.42;96406.19;5008563;28;20044;-73
2021/10/26 08:14:25;;;;;;;14.05;8.98;;;;;;;8.74;54.51;96403.94;5025559;28;20021;-75
2021/10/26 08:16:50;;;;;;;11.05;7.80;;;;;;;8.88;54.21;96402.66;5026146;28;20026;-75
2021/10/26 08:19:16;;;;;;;11.90;8.43;;;;;;;9.10;53.98;96399.81;5026098;28;20471;-75
2021/10/26 08:21:42;;;;;;;11.77;7.93;;;;;;;9.13;53.55;96397.69;5025842;28;20134;-74
2021/10/26 08:24:08;;;;;;;12.77;7.60;;;;;;;9.21;52.69;96388.94;5026267;28;20164;-74
2021/10/26 08:26:42;;;;;;;12.63;7.72;;;;;;;9.27;52.69;96393.72;5025514;28;20025;-74
2021/10/26 08:29:32;;;;;;;9.75;7.15;;;;;;;9.33;52.97;96392.31;5026136;28;20044;-75
2021/10/26 08:37:09;;;;;;;11.95;8.35;;;;;;;9.45;51.50;96392.97;5030267;28;20034;-75
2021/10/26 08:39:36;;;;;;;12.88;8.43;;;;;;;9.43;51.41;96392.25;5027869;28;20102;-74
2021/10/26 08:42:01;;;;;;;10.07;7.40;;;;;;;9.34;52.04;96393.13;5028630;28;20025;-72
2021/10/26 08:44:27;;;;;;;12.75;8.27;;;;;;;9.37;52.73;96392.84;5011394;28;20146;-75
2021/10/26 08:46:53;;;;;;;12.00;8.10;;;;;;;9.40;52.05;96389.88;5012126;28;20025;-74
2021/10/26 08:49:18;;;;;;;12.63;7.80;;;;;;;9.45;52.16;96394.78;5011866;28;20109;-74
2021/10/26 08:51:45;;;;;;;13.65;8.80;;;;;;;9.40;52.09;96392.53;5028101;28;20032;-74
2021/10/26 08:54:11;;;;;;;14.35;9.50;;;;;;;9.21;53.07;96396.97;5029745;28;20037;-74
2021/10/26 08:56:37;;;;;;;14.63;8.60;;;;;;;9.18;52.51;96393.75;5027602;28;20396;-74
2021/10/26 08:59:03;;;;;;;12.30;8.93;;;;;;;9.22;52.99;96395.16;5029714;28;20120;-74
2021/10/26 09:01:29;;;;;;;13.02;8.68;;;;;;;9.43;53.22;96391.44;5011384;28;20109;-76
2021/10/26 09:04:11;;;;;;;13.40;9.35;;;;;;;9.59;52.74;96388.94;5029441;28;20043;-74
2021/10/26 09:06:46;;;;;;;13.50;8.90;;;;;;;9.72;52.02;96385.94;5027674;28;20026;-75
2021/10/26 09:09:24;;;;;;;14.00;9.20;;;;;;;9.77;51.95;96388.16;5011151;28;20046;-74
2021/10/26 09:17:48;;;;;;;16.27;8.88;;;;;;;9.95;51.48;96376.66;5028011;28;20120;-76
2021/10/26 09:20:15;;;;;;;13.90;9.25;;;;;;;10.00;51.43;96372.56;5028133;28;20033;-73
2021/10/26 09:22:46;;;;;;;14.35;8.57;;;;;;;9.96;50.96;96370.31;5027309;28;20111;-76
2021/10/26 09:25:13;;;;;;;10.43;7.50;;;;;;;9.99;51.19;96368.19;5027910;28;20110;-75
2021/10/26 09:27:39;;;;;;;11.75;8.48;;;;;;;9.91;51.66;96367.25;5027060;28;20075;-74
2021/10/26 09:30:07;;;;;;;12.40;8.27;;;;;;;9.93;51.62;96359.91;5027804;28;20500;-75
2021/10/26 09:32:38;;;;;;;11.18;8.15;;;;;;;9.96;51.99;96344.34;5027617;28;20052;-77
2021/10/26 09:35:08;;;;;;;12.43;7.97;;;;;;;10.03;51.47;96341.91;5027469;28;20071;-74
2021/10/26 09:37:45;;;;;;;12.73;8.55;;;;;;;9.99;51.64;96341.41;5011781;28;20029;-73
2021/10/26 09:40:11;;;;;;;13.60;8.70;;;;;;;10.03;50.92;96339.22;5028572;28;20037;-74
2021/10/26 09:42:44;;;;;;;11.82;8.25;;;;;;;10.09;51.44;96335.94;5026763;28;20032;-73
2021/10/26 09:45:11;;;;;;;14.48;8.93;;;;;;;10.07;51.23;96332.59;5026930;28;20200;-74
2021/10/26 09:47:37;;;;;;;13.13;8.18;;;;;;;10.05;50.76;96321.19;5011276;28;20109;-75
2021/10/26 09:50:07;;;;;;;15.43;8.85;;;;;;;10.02;50.73;96316.13;5010701;28;20018;-75
2021/10/26 09:52:36;;;;;;;11.68;8.02;;;;;;;9.94;51.57;96314.19;5027186;28;20246;-74
2021/10/26 09:55:20;;;;;;;15.63;8.63;;;;;;;9.93;51.25;96307.13;5011062;28;20021;-73
2021/10/26 09:57:47;;;;;;;12.68;8.65;;;;;;;9.88;51.43;96312.13;5011288;28;20017;-74
2021/10/26 10:00:17;;;;;;;11.60;7.90;;;;;;;9.91;51.52;96297.56;5027106;28;20032;-73
2021/10/26 10:02:43;;;;;;;12.75;8.23;;;;;;;9.99;52.76;96293.16;5010867;28;20040;-75
2021/10/26 10:05:20;;;;;;;12.60;8.30;;;;;;;10.04;52.00;96291.84;5028452;28;20025;-75
2021/10/26 10:07:45;;;;;;;10.35;7.57;;;;;;;9.99;50.65;96295.84;5027289;28;20373;-74
2021/10/26 10:10:11;;;;;;;12.65;7.88;;;;;;;9.94;50.80;96284.72;5027511;28;20058;-74
2021/10/26 10:12:42;;;;;;;9.93;7.28;;;;;;;9.94;50.93;96275.84;5010743;28;20483;-74
2021/10/26 10:15:08;;;;;;;12.80;7.82;;;;;;;9.94;51.04;96275.84;5027394;28;20510;-72
2021/10/26 10:17:35;;;;;;;10.90;8.18;;;;;;;9.96;51.37;96271.16;5027132;28;20028;-73
2021/10/26 10:20:00;;;;;;;11.98;8.65;;;;;;;9.93;51.55;96269.63;5009885;28;20415;-74
2021/10/26 10:22:29;;;;;;;11.43;8.05;;;;;;;9.92;51.39;96267.94;5026645;28;20034;-73
2021/10/26 10:25:00;;;;;;;9.75;7.63;;;;;;;10.00;50.94;96262.66;5026687;28;20033;-74
2021/10/26 10:27:30;;;;;;;14.20;7.97;;;;;;;10.06;50.26;96261.19;5026383;28;20025;-74
2021/10/26 10:29:56;;;;;;;13.00;8.13;;;;;;;10.14;50.25;96261.28;5010397;28;20128;-74
2021/10/26 10:32:25;;;;;;;12.20;8.43;;;;;;;10.26;50.39;96247.66;5027397;28;20100;-73
2021/10/26 10:34:52;;;;;;;9.50;7.32;;;;;;;10.26;49.23;96248.50;5026663;28;20496;-75
2021/10/26 10:37:20;;;;;;;10.07;7.70;;;;;;;10.35;49.66;96240.53;5025831;28;20466;-74
2021/10/26 10:39:46;;;;;;;10.20;7.68;;;;;;;10.40;48.72;96243.56;5009808;28;20570;-75
2021/10/26 10:42:22;;;;;;;10.40;7.22;;;;;;;10.48;49.21;96240.97;5010818;28;20116;-74
2021/10/26 10:44:48;;;;;;;9.55;6.97;;;;;;;10.45;48.95;96233.22;5025963;28;20044;-73
2021/10/26 10:47:47;;;;;;;12.70;7.25;;;;;;;10.40;48.49;96230.16;5026266;28;20021;-75
2021/10/26 10:50:23;;;;;;;9.30;6.50;;;;;;;10.43;48.46;96226.34;5014397;28;20069;-73
2021/10/26 10:53:15;;;;;;;11.73;6.93;;;;;;;10.45;49.31;96227.84;5025554;28;20396;-74
2021/10/26 10:55:48;;;;;;;9.32;7.22;;;;;;;10.49;49.03;96221.19;5026463;28;20488;-74
2021/10/26 10:58:39;;;;;;;10.38;7.07;;;;;;;10.60;48.77;96216.56;5025319;28;20026;-73
2021/10/26 11:01:21;;;;;;;9.25;7.15;;;;;;;10.65;48.58;96210.75;5026977;28;20042;-74
2021/10/26 11:03:46;;;;;;;10.68;7.20;;;;;;;10.75;47.87;96209.63;5027425;28;20033;-75
2021/10/26 11:06:40;;;;;;;11.15;6.70;;;;;;;10.87;47.22;96204.84;5026759;28;20113;-74
2021/10/26 11:09:25;;;;;;;9.40;6.13;;;;;;;10.92;47.00;96188.25;5026818;28;20567;-74
2021/10/26 11:12:13;;;;;;;11.40;7.15;;;;;;;11.01;47.01;96194.47;5027010;28;20030;-76
2021/10/26 11:14:59;;;;;;;14.80;7.22;;;;;;;11.15;47.00;96187.69;5027117;28;20069;-75
2021/10/26 11:17:41;;;;;;;8.38;5.65;;;;;;;11.18;46.10;96176.63;5009364;28;20032;-74
2021/10/26 11:20:36;;;;;;;8.15;5.72;;;;;;;11.12;46.48;96175.41;5026431;28;20026;-73
2021/10/26 11:23:03;;;;;;;8.90;6.00;;;;;;;11.21;45.93;96187.03;5026754;28;20041;-74
2021/10/26 11:25:32;;;;;;;8.70;6.93;;;;;;;11.29;45.81;96171.94;5026542;28;20048;-74
2021/10/26 11:27:58;;;;;;;9.40;6.28;;;;;;;11.34;46.43;96165.09;5025187;28;20033;-74
2021/10/26 11:30:27;;;;;;;9.13;5.60;;;;;;;11.44;45.30;96162.25;5026783;28;20111;-75
2021/10/26 11:33:24;;;;;;;7.15;5.13;;;;;;;11.54;45.64;96162.13;5026209;28;20068;-75
2021/10/26 11:35:55;;;;;;;9.70;5.32;;;;;;;11.60;44.31;96152.53;5025043;28;20056;-73
2021/10/26 11:38:34;;;;;;;7.63;5.40;;;;;;;11.66;44.48;96151.03;5025212;28;20464;-75
2021/10/26 11:41:25;;;;;;;10.02;5.68;;;;;;;11.78;44.26;96151.56;5025007;28;20036;-74
2021/10/26 11:43:56;;;;;;;9.48;5.85;;;;;;;11.80;43.96;96133.41;5025765;28;20414;-74